メインページ
METAR-TAF:

METAR-TAF

空港 :

ワルシャワ, ポーランド

ワルシャワ・ショパン空港

緯度: 52-10N, 経度: 020-58E, 海抜: 106m

現時点の気象観測

当レポートは33分前の14:00(UTC)に作成
東/北東の風 7kt
気温 0°C
湿度 86%
気圧 1012 hPa
視程: 7000m
高度700ftの千切れ雲あり

METAR: EPWA 211400Z 06007KT 7000 BKN007 M00/M02 Q1012 R11/2///95 NOSIG

時間: 15:33 (14:33 UTC)

予報

当レポートは3時間3分前の11:30(UTC)に作成
予報は21日の 12時(UTC)から 22日の 12時(UTC)まで有効
北/北東の風 5kt
視程: 4000m
高度600ftの千切れ雲あり
21日の 12時(UTC)から 21日の 16時(UTC)まで一時的に
視程: 6000m
確率 40%
21日の 18時(UTC)から 22日の 08時(UTC)まで
視程: 2000m
高度300ftの千切れ雲あり
22日の 08時(UTC)から 22日の 10時(UTC)まで徐々に
視程: 8000m
高度1200ftの雲は散在している

TAF: EPWA 211130Z 2112/2212 03005KT 4000 BR BKN006 TEMPO 2112/2116 6000 PROB40 2118/2208 2000 BR BKN003 BECMG 2208/2210 8000 SCT012

4,000以上の空港の気象観測と天気予報(METAR報とTAF報)

利用可能な観測所は地図上に黄色い丸と赤い丸で示す。

丸の上にカーソルを重ねると観測所名を参照できる。

次にクリックすると気象観測と天気予報を参照できる。

マップの切り替え:黒色「×」印の緑ボタンをクリックして拡大、「-」印の緑ボタンをクリックして縮小、緑色の三角印をクリックして隣りの地図に切り替え


METAR-TAF: